Lisbon, Portugal
Current Conditions -  °F | °C
As of 8:00 AM on Tuesday 21 Oct 2014 (Local Time) from LPPT Reporting Station
Clear Clear  
Wind Chill: 66°   Ceiling: Unl
Heat Index: 66°   Visibility: 6mi
Dew Point: 57°   Wind: 5mph
Humidity: 73%   Direction: 50°NE
Pressure: 30.18"   Gusts: NA
Location:  38.72°N, 9.14°W
Report Text: LPPT 210700Z 05004KT CAVOK 19/14 Q1022
Loading
Personal Weather Stations






























Interactive Weather Map New forecast layout! Learn more

10-Day Weather Forecast

Advertisements
Track Severe Weather on mobile